createdAt,value
2017-08-09T00:00:01.317Z,12.40
2017-08-09T00:02:29.468Z,11.77
2017-08-09T00:04:57.498Z,13.17
2017-08-09T00:07:25.563Z,12.67
2017-08-09T00:09:53.724Z,12.63
2017-08-09T00:12:21.831Z,13.27
2017-08-09T00:14:49.834Z,12.30
2017-08-09T00:17:18.000Z,13.47
2017-08-09T00:19:46.044Z,13.13
2017-08-09T00:22:14.056Z,14.10
2017-08-09T00:24:42.228Z,11.47
2017-08-09T00:27:10.274Z,12.10
2017-08-09T00:29:38.346Z,11.37
2017-08-09T00:32:06.492Z,11.83
2017-08-09T00:34:34.574Z,13.13
2017-08-09T00:37:02.824Z,12.40
2017-08-09T00:39:31.044Z,12.37
2017-08-09T00:41:59.125Z,12.80
2017-08-09T00:44:27.218Z,12.10
2017-08-09T00:46:55.540Z,12.23
2017-08-09T00:49:23.656Z,12.73
2017-08-09T00:51:51.872Z,13.40
2017-08-09T00:54:20.024Z,14.60
2017-08-09T00:56:48.070Z,13.77
2017-08-09T00:59:16.108Z,12.23
2017-08-09T01:01:44.280Z,13.00
2017-08-09T01:04:12.359Z,13.40
2017-08-09T01:06:40.439Z,14.10
2017-08-09T01:09:08.569Z,13.67
2017-08-09T01:11:36.641Z,12.43
2017-08-09T01:14:04.671Z,13.10
2017-08-09T01:16:32.946Z,13.00
2017-08-09T01:19:00.965Z,12.33
2017-08-09T01:21:28.961Z,15.13
2017-08-09T01:23:57.165Z,14.27
2017-08-09T01:26:25.258Z,14.00
2017-08-09T01:28:53.369Z,13.80
2017-08-09T01:31:21.584Z,15.87
2017-08-09T01:33:49.634Z,14.60
2017-08-09T01:36:17.692Z,12.20
2017-08-09T01:38:45.891Z,12.90
2017-08-09T01:41:14.051Z,13.90
2017-08-09T01:43:42.134Z,13.87
2017-08-09T01:46:10.348Z,13.60
2017-08-09T01:48:38.448Z,12.70
2017-08-09T01:51:06.533Z,12.10
2017-08-09T01:53:34.862Z,11.57
2017-08-09T01:56:02.968Z,14.27
2017-08-09T01:58:31.077Z,11.77
2017-08-09T02:00:59.525Z,12.13
2017-08-09T02:03:27.627Z,12.97
2017-08-09T02:05:55.751Z,11.60
2017-08-09T02:08:23.880Z,11.37
2017-08-09T02:10:51.883Z,12.10
2017-08-09T02:13:19.914Z,11.43
2017-08-09T02:15:48.092Z,11.57
2017-08-09T02:18:16.186Z,10.97
2017-08-09T02:20:44.268Z,10.03
2017-08-09T02:23:12.422Z,10.50
2017-08-09T02:25:40.468Z,12.83
2017-08-09T02:28:08.585Z,11.30
2017-08-09T02:30:36.890Z,12.10
2017-08-09T02:33:05.027Z,11.07
2017-08-09T02:35:33.054Z,10.80
2017-08-09T02:38:01.245Z,9.03
2017-08-09T02:40:29.312Z,9.43
2017-08-09T02:42:57.350Z,10.73
2017-08-09T02:45:25.578Z,9.90
2017-08-09T02:47:53.620Z,9.43
2017-08-09T02:50:21.701Z,10.13
2017-08-09T02:52:49.901Z,8.33
2017-08-09T02:55:18.084Z,9.90
2017-08-09T02:57:46.162Z,9.33
2017-08-09T03:00:14.354Z,8.77
2017-08-09T03:02:42.402Z,9.40
2017-08-09T03:05:10.490Z,8.90
2017-08-09T03:07:38.664Z,8.97
2017-08-09T03:10:06.725Z,10.40
2017-08-09T03:12:34.783Z,11.27
2017-08-09T03:15:02.986Z,9.70
2017-08-09T03:17:31.061Z,10.10
2017-08-09T03:19:59.106Z,9.80
2017-08-09T03:22:27.342Z,10.63
2017-08-09T03:24:55.418Z,11.73
2017-08-09T03:27:23.489Z,9.67
2017-08-09T03:29:51.701Z,11.40
2017-08-09T03:32:19.753Z,11.00
2017-08-09T03:34:47.902Z,10.30
2017-08-09T03:37:16.092Z,11.70
2017-08-09T03:39:44.089Z,11.73
2017-08-09T03:42:12.149Z,11.23
2017-08-09T03:44:40.310Z,10.90
2017-08-09T03:47:08.392Z,10.57
2017-08-09T03:49:36.427Z,12.40
2017-08-09T03:52:04.602Z,11.17
2017-08-09T03:54:32.670Z,12.00
2017-08-09T03:57:00.874Z,11.67
2017-08-09T03:59:29.052Z,11.87
2017-08-09T04:01:57.132Z,11.83
2017-08-09T04:04:25.226Z,12.23
2017-08-09T04:06:53.348Z,12.40
2017-08-09T04:09:21.380Z,11.67
2017-08-09T04:11:49.424Z,10.80
2017-08-09T04:14:17.621Z,12.43
2017-08-09T04:16:45.722Z,12.63
2017-08-09T04:19:13.722Z,10.93
2017-08-09T04:21:41.908Z,11.10
2017-08-09T04:24:09.994Z,11.90
2017-08-09T04:26:38.032Z,11.77
2017-08-09T04:29:06.269Z,10.60
2017-08-09T04:31:34.359Z,11.77
2017-08-09T04:34:02.452Z,10.23
2017-08-09T04:36:30.701Z,12.30
2017-08-09T04:38:58.763Z,12.10
2017-08-09T04:41:26.758Z,12.73
2017-08-09T04:43:54.930Z,14.50
2017-08-09T04:46:23.048Z,13.90
2017-08-09T04:48:51.106Z,15.23
2017-08-09T04:51:19.317Z,14.63
2017-08-09T04:53:47.430Z,14.87
2017-08-09T04:56:15.450Z,14.38
2017-08-09T04:58:43.787Z,15.65
2017-08-09T05:01:11.817Z,15.57
2017-08-09T05:03:39.880Z,13.80
2017-08-09T05:06:08.075Z,14.50
2017-08-09T05:08:36.136Z,13.90
2017-08-09T05:11:04.225Z,14.25
2017-08-09T05:13:32.513Z,13.88
2017-08-09T05:16:00.600Z,13.48
2017-08-09T05:18:28.664Z,13.95
2017-08-09T05:20:56.867Z,12.35
2017-08-09T05:23:24.885Z,13.73
2017-08-09T05:25:52.966Z,14.48
2017-08-09T05:28:21.132Z,14.75
2017-08-09T05:30:49.257Z,14.68
2017-08-09T05:33:17.351Z,14.32
2017-08-09T05:35:45.517Z,13.02
2017-08-09T05:38:13.553Z,15.20
2017-08-09T05:40:41.649Z,15.82
2017-08-09T05:43:09.848Z,15.65
2017-08-09T05:45:37.943Z,15.52
2017-08-09T05:48:06.005Z,15.02
2017-08-09T05:50:34.218Z,13.55
2017-08-09T05:53:02.278Z,16.12
2017-08-09T05:55:30.352Z,16.02
2017-08-09T05:57:58.551Z,14.73
2017-08-09T06:00:26.783Z,15.13
2017-08-09T06:02:54.896Z,15.23
2017-08-09T06:05:23.072Z,14.32
2017-08-09T06:07:51.160Z,14.13
2017-08-09T06:10:19.226Z,13.52
2017-08-09T06:12:47.377Z,16.33
2017-08-09T06:15:15.464Z,13.95
2017-08-09T06:17:43.534Z,16.45
2017-08-09T06:20:11.732Z,14.25
2017-08-09T06:22:39.801Z,14.02
2017-08-09T06:25:07.848Z,14.73
2017-08-09T06:27:36.052Z,15.88
2017-08-09T06:30:04.180Z,15.70
2017-08-09T06:32:32.279Z,12.63
2017-08-09T06:35:00.428Z,11.60
2017-08-09T06:37:28.462Z,14.55
2017-08-09T06:39:56.548Z,11.52
2017-08-09T06:42:24.761Z,12.68
2017-08-09T06:44:52.820Z,11.55
2017-08-09T06:47:20.885Z,11.20
2017-08-09T06:49:49.066Z,11.85
2017-08-09T06:52:17.149Z,11.50
2017-08-09T06:54:45.186Z,12.10
2017-08-09T06:57:13.378Z,12.13
2017-08-09T06:59:41.477Z,11.32
2017-08-09T07:02:09.644Z,12.00
2017-08-09T07:04:37.764Z,10.77
2017-08-09T07:07:05.857Z,10.45
2017-08-09T07:09:33.912Z,11.38
2017-08-09T07:12:02.066Z,9.52
2017-08-09T07:14:30.126Z,12.13
2017-08-09T07:16:58.226Z,10.48
2017-08-09T07:19:26.476Z,10.05
2017-08-09T07:21:54.511Z,10.63
2017-08-09T07:24:22.530Z,11.45
2017-08-09T07:26:50.674Z,9.80
2017-08-09T07:29:18.755Z,9.75
2017-08-09T07:31:46.818Z,9.73
2017-08-09T07:34:15.060Z,10.52
2017-08-09T07:36:43.104Z,10.23
2017-08-09T07:39:11.218Z,12.88
2017-08-09T07:41:39.517Z,10.73
2017-08-09T07:44:07.549Z,12.20
2017-08-09T07:46:35.654Z,10.98
2017-08-09T07:49:03.836Z,10.35
2017-08-09T07:51:31.950Z,10.80
2017-08-09T07:53:59.952Z,11.52
2017-08-09T07:56:28.216Z,11.70
2017-08-09T07:58:56.269Z,11.63
2017-08-09T08:01:24.379Z,10.60
2017-08-09T08:03:52.710Z,10.88
2017-08-09T08:06:20.714Z,11.32
2017-08-09T08:08:48.748Z,11.32
2017-08-09T08:11:16.931Z,11.68
2017-08-09T08:13:44.992Z,11.93
2017-08-09T08:16:13.042Z,11.02
2017-08-09T08:18:41.309Z,10.80
2017-08-09T08:21:09.393Z,11.55
2017-08-09T08:23:37.430Z,13.05
2017-08-09T08:26:05.640Z,13.05
2017-08-09T08:28:33.678Z,13.07
2017-08-09T08:31:01.707Z,12.73
2017-08-09T08:33:29.847Z,13.93
2017-08-09T08:35:57.933Z,16.17
2017-08-09T08:38:26.023Z,14.05
2017-08-09T08:40:54.188Z,15.77
2017-08-09T08:43:22.201Z,15.43
2017-08-09T08:45:50.275Z,14.65
2017-08-09T08:48:18.413Z,14.10
2017-08-09T08:50:46.469Z,15.52
2017-08-09T08:53:14.545Z,15.00
2017-08-09T08:55:42.692Z,13.30
2017-08-09T08:58:10.867Z,12.73
2017-08-09T09:00:38.946Z,11.43
2017-08-09T09:03:07.172Z,13.13
2017-08-09T09:05:35.358Z,12.77
2017-08-09T09:08:03.353Z,13.10
2017-08-09T09:10:31.527Z,12.33
2017-08-09T09:12:59.584Z,12.97
2017-08-09T09:15:27.632Z,12.63
2017-08-09T09:17:55.747Z,11.47
2017-08-09T09:20:23.838Z,11.73
2017-08-09T09:22:51.949Z,13.20
2017-08-09T09:25:20.110Z,11.90
2017-08-09T09:27:48.198Z,12.20
2017-08-09T09:30:16.287Z,11.57
2017-08-09T09:32:44.493Z,11.40
2017-08-09T09:35:12.572Z,11.70
2017-08-09T09:37:40.648Z,12.40
2017-08-09T09:40:08.817Z,10.97
2017-08-09T09:42:36.906Z,11.93
2017-08-09T09:45:04.942Z,11.60
2017-08-09T09:47:33.137Z,11.30
2017-08-09T09:50:01.182Z,12.50
2017-08-09T09:52:29.239Z,11.17
2017-08-09T09:54:57.400Z,11.47
2017-08-09T09:57:25.620Z,11.57
2017-08-09T09:59:53.663Z,10.50
2017-08-09T10:02:21.870Z,10.27
2017-08-09T10:04:49.858Z,11.00
2017-08-09T10:07:18.068Z,11.57
2017-08-09T10:09:46.257Z,10.70
2017-08-09T10:12:14.322Z,11.07
2017-08-09T10:14:42.356Z,11.93
2017-08-09T10:17:10.497Z,11.20
2017-08-09T10:19:38.581Z,12.13
2017-08-09T10:22:06.660Z,12.37
2017-08-09T10:24:34.786Z,13.20
2017-08-09T10:27:02.829Z,11.37
2017-08-09T10:29:30.823Z,10.80
2017-08-09T10:31:58.994Z,11.47
2017-08-09T10:34:27.014Z,11.57
2017-08-09T10:36:55.084Z,11.27
2017-08-09T10:39:23.239Z,10.90
2017-08-09T10:41:51.302Z,12.10
2017-08-09T10:44:19.353Z,11.47
2017-08-09T10:46:47.502Z,10.13
2017-08-09T10:49:15.498Z,10.70
2017-08-09T10:51:43.560Z,10.97
2017-08-09T10:54:11.700Z,11.80
2017-08-09T10:56:39.752Z,12.90
2017-08-09T10:59:07.853Z,11.60
2017-08-09T11:01:35.991Z,12.27
2017-08-09T11:04:04.060Z,12.57
2017-08-09T11:06:32.180Z,12.40
2017-08-09T11:09:00.476Z,12.10
2017-08-09T11:11:28.531Z,12.60
2017-08-09T11:13:56.653Z,11.27
2017-08-09T11:16:24.761Z,12.17
2017-08-09T11:18:52.934Z,12.03
2017-08-09T11:21:20.985Z,11.63
2017-08-09T11:23:49.170Z,11.80
2017-08-09T11:26:17.258Z,12.00
2017-08-09T11:28:45.318Z,11.70
2017-08-09T11:31:13.442Z,12.33
2017-08-09T11:33:41.510Z,12.20
2017-08-09T11:36:09.536Z,14.00
2017-08-09T11:38:37.712Z,11.40
2017-08-09T11:41:05.738Z,12.87
2017-08-09T11:43:33.795Z,12.10
2017-08-09T11:46:01.988Z,12.93
2017-08-09T11:48:30.080Z,11.63
2017-08-09T11:50:58.159Z,11.13
2017-08-09T11:53:26.355Z,12.90
2017-08-09T11:55:54.450Z,12.57
2017-08-09T11:58:22.561Z,11.07
2017-08-09T12:00:50.768Z,11.90
2017-08-09T12:03:18.810Z,11.60
2017-08-09T12:05:46.853Z,11.53
2017-08-09T12:08:15.016Z,13.23
2017-08-09T12:10:43.197Z,13.00
2017-08-09T12:13:11.253Z,12.53
2017-08-09T12:15:39.376Z,12.20
2017-08-09T12:18:07.456Z,11.83
2017-08-09T12:20:35.556Z,13.37
2017-08-09T12:23:03.768Z,13.30
2017-08-09T12:25:31.862Z,13.50
2017-08-09T12:27:59.902Z,12.27
2017-08-09T12:30:28.060Z,13.13
2017-08-09T12:32:56.126Z,12.87
2017-08-09T12:35:24.193Z,13.43
2017-08-09T12:37:52.327Z,15.30
2017-08-09T12:40:20.385Z,12.47
2017-08-09T12:42:48.473Z,12.63
2017-08-09T12:45:16.695Z,12.33
2017-08-09T12:47:44.776Z,12.20
2017-08-09T12:50:12.892Z,14.40
2017-08-09T12:52:41.090Z,13.33
2017-08-09T12:55:09.133Z,11.80
2017-08-09T12:57:37.194Z,12.53
2017-08-09T13:00:05.382Z,12.30
2017-08-09T13:02:33.482Z,12.97
2017-08-09T13:05:01.534Z,11.27
2017-08-09T13:07:29.661Z,11.67
2017-08-09T13:09:57.740Z,11.97
2017-08-09T13:12:25.934Z,12.53
2017-08-09T13:14:54.129Z,11.40
2017-08-09T13:17:22.168Z,11.10
2017-08-09T13:19:50.206Z,12.27
2017-08-09T13:22:18.396Z,13.13
2017-08-09T13:24:46.473Z,11.97
2017-08-09T13:27:14.521Z,11.03
2017-08-09T13:29:42.742Z,11.67
2017-08-09T13:32:10.823Z,13.03
2017-08-09T13:34:38.834Z,12.27
2017-08-09T13:37:06.976Z,11.80
2017-08-09T13:39:35.056Z,11.80
2017-08-09T13:42:03.130Z,12.60
2017-08-09T13:44:31.324Z,12.07
2017-08-09T13:46:59.413Z,13.10
2017-08-09T13:49:27.442Z,13.00
2017-08-09T13:51:55.566Z,13.97
2017-08-09T13:54:23.601Z,12.67
2017-08-09T13:56:51.693Z,12.47
2017-08-09T13:59:19.833Z,12.57
2017-08-09T14:01:47.911Z,12.23
2017-08-09T14:04:15.977Z,12.00
2017-08-09T14:06:44.189Z,12.07
2017-08-09T14:09:12.286Z,12.70
2017-08-09T14:11:40.344Z,12.13
2017-08-09T14:14:08.679Z,12.53
2017-08-09T14:16:36.890Z,13.37
2017-08-09T14:19:04.967Z,12.27
2017-08-09T14:21:33.157Z,12.17
2017-08-09T14:24:01.200Z,12.23
2017-08-09T14:26:29.266Z,11.60
2017-08-09T14:28:57.465Z,12.17
2017-08-09T14:31:25.498Z,11.20
2017-08-09T14:33:53.517Z,11.03
2017-08-09T14:36:21.673Z,11.97
2017-08-09T14:38:49.720Z,11.97
2017-08-09T14:41:17.802Z,11.03
2017-08-09T14:43:45.953Z,12.27
2017-08-09T14:46:13.967Z,11.60
2017-08-09T14:48:41.994Z,11.33
2017-08-09T14:51:10.300Z,12.33
2017-08-09T14:53:38.414Z,11.00
2017-08-09T14:56:06.414Z,10.67
2017-08-09T14:58:34.648Z,12.83
2017-08-09T15:01:02.662Z,10.80
2017-08-09T15:03:30.768Z,12.40
2017-08-09T15:05:58.929Z,12.17
2017-08-09T15:08:27.044Z,11.27
2017-08-09T15:10:55.088Z,12.47
2017-08-09T15:13:23.243Z,12.60
2017-08-09T15:15:51.440Z,12.00
2017-08-09T15:18:19.488Z,11.13
2017-08-09T15:20:47.668Z,10.10
2017-08-09T15:23:15.674Z,10.07
2017-08-09T15:25:43.752Z,10.97
2017-08-09T15:28:11.924Z,10.10
2017-08-09T15:30:40.007Z,9.73
2017-08-09T15:33:08.087Z,9.87
2017-08-09T15:35:36.248Z,10.00
2017-08-09T15:38:04.322Z,10.70
2017-08-09T15:40:32.380Z,10.43
2017-08-09T15:43:00.604Z,11.70
2017-08-09T15:45:28.652Z,10.17
2017-08-09T15:47:56.760Z,10.00
2017-08-09T15:50:24.961Z,10.87
2017-08-09T15:52:53.015Z,10.77
2017-08-09T15:55:21.091Z,11.13
2017-08-09T15:57:49.316Z,9.70
2017-08-09T16:00:17.317Z,11.53
2017-08-09T16:02:45.360Z,10.97
2017-08-09T16:05:13.566Z,9.73
2017-08-09T16:07:41.676Z,10.07
2017-08-09T16:10:09.756Z,10.60
2017-08-09T16:12:37.941Z,11.03
2017-08-09T16:15:05.987Z,11.10
2017-08-09T16:17:34.216Z,11.20
2017-08-09T16:20:02.379Z,11.03
2017-08-09T16:22:30.468Z,10.73
2017-08-09T16:24:58.574Z,11.90
2017-08-09T16:27:26.761Z,11.37
2017-08-09T16:29:54.817Z,11.40
2017-08-09T16:32:22.859Z,11.20
2017-08-09T16:34:51.040Z,13.27
2017-08-09T16:37:19.110Z,11.27
2017-08-09T16:39:47.105Z,12.80
2017-08-09T16:42:15.305Z,12.90
2017-08-09T16:44:43.398Z,11.57
2017-08-09T16:47:11.477Z,12.67
2017-08-09T16:49:39.674Z,11.90
2017-08-09T16:52:07.800Z,11.00
2017-08-09T16:54:35.857Z,12.43
2017-08-09T16:57:04.038Z,12.00
2017-08-09T16:59:32.120Z,11.23
2017-08-09T17:02:00.130Z,12.03
2017-08-09T17:04:28.254Z,12.07
2017-08-09T17:06:56.274Z,11.90
2017-08-09T17:09:24.342Z,11.70
2017-08-09T17:11:52.532Z,11.60
2017-08-09T17:14:20.634Z,11.17
2017-08-09T17:16:48.665Z,11.57
2017-08-09T17:19:16.941Z,12.60
2017-08-09T17:21:45.057Z,12.77
2017-08-09T17:24:13.089Z,11.80
2017-08-09T17:26:41.264Z,11.53
2017-08-09T17:29:09.338Z,11.87
2017-08-09T17:31:39.739Z,11.37
2017-08-09T17:34:07.963Z,10.77
2017-08-09T17:36:36.049Z,11.70
2017-08-09T17:39:04.402Z,10.73
2017-08-09T17:41:32.554Z,12.00
2017-08-09T17:44:00.617Z,11.93
2017-08-09T17:46:28.683Z,12.13
2017-08-09T17:48:56.851Z,11.67
2017-08-09T17:51:24.933Z,11.43
2017-08-09T17:53:53.012Z,13.37
2017-08-09T17:56:21.501Z,10.60
2017-08-09T17:58:50.328Z,12.67
2017-08-09T18:01:18.617Z,11.93
2017-08-09T18:03:47.011Z,13.07
2017-08-09T18:06:15.336Z,12.77
2017-08-09T18:08:43.421Z,11.60
2017-08-09T18:11:11.564Z,13.30
2017-08-09T18:13:39.633Z,11.80
2017-08-09T18:16:07.891Z,11.30
2017-08-09T18:18:36.074Z,11.67
2017-08-09T18:21:04.409Z,12.50
2017-08-09T18:23:32.400Z,12.13
2017-08-09T18:26:00.612Z,12.10
2017-08-09T18:28:28.684Z,12.00
2017-08-09T18:30:56.744Z,11.30
2017-08-09T18:33:24.921Z,12.40
2017-08-09T18:35:52.994Z,11.23
2017-08-09T18:38:21.100Z,11.67
2017-08-09T18:40:49.289Z,11.50
2017-08-09T18:43:17.332Z,11.13
2017-08-09T18:45:45.398Z,11.30
2017-08-09T18:48:13.562Z,11.10
2017-08-09T18:50:41.570Z,11.80
2017-08-09T18:53:09.615Z,12.50
2017-08-09T18:55:37.806Z,11.80
2017-08-09T18:58:05.846Z,10.73
2017-08-09T19:00:33.972Z,12.30
2017-08-09T19:03:02.130Z,12.10
2017-08-09T19:05:30.308Z,12.70
2017-08-09T19:07:58.414Z,11.97
2017-08-09T19:10:26.588Z,11.73
2017-08-09T19:12:54.618Z,11.07
2017-08-09T19:15:22.650Z,13.30
2017-08-09T19:17:50.828Z,11.67
2017-08-09T19:20:18.865Z,13.77
2017-08-09T19:22:46.994Z,12.57
2017-08-09T19:25:15.173Z,13.60
2017-08-09T19:27:43.220Z,13.17
2017-08-09T19:30:11.237Z,14.60
2017-08-09T19:32:39.408Z,12.23
2017-08-09T19:35:07.478Z,12.20
2017-08-09T19:37:35.574Z,14.63
2017-08-09T19:40:03.757Z,13.80
2017-08-09T19:42:31.876Z,13.40
2017-08-09T19:44:59.954Z,13.47
2017-08-09T19:47:28.143Z,13.97
2017-08-09T19:49:56.204Z,14.33
2017-08-09T19:52:24.274Z,14.40
2017-08-09T19:54:52.460Z,12.33
2017-08-09T19:57:20.526Z,12.40
2017-08-09T19:59:48.554Z,13.67
2017-08-09T20:02:16.706Z,13.30
2017-08-09T20:04:44.773Z,12.20
2017-08-09T20:07:12.897Z,13.40
2017-08-09T20:09:41.063Z,13.60
2017-08-09T20:12:09.140Z,13.37
2017-08-09T20:14:37.170Z,12.37
2017-08-09T20:17:05.344Z,12.23
2017-08-09T20:19:33.412Z,12.80
2017-08-09T20:22:01.465Z,13.43
2017-08-09T20:24:29.765Z,14.20
2017-08-09T20:26:57.820Z,13.57
2017-08-09T20:29:25.922Z,13.80
2017-08-09T20:31:54.096Z,13.70
2017-08-09T20:34:22.148Z,14.40
2017-08-09T20:36:50.166Z,14.03
2017-08-09T20:39:18.300Z,13.27
2017-08-09T20:41:46.310Z,13.47
2017-08-09T20:44:14.332Z,14.23
2017-08-09T20:46:42.527Z,14.90
2017-08-09T20:49:10.598Z,14.77
2017-08-09T20:51:38.671Z,13.80
2017-08-09T20:54:06.840Z,14.80
2017-08-09T20:56:34.910Z,13.37
2017-08-09T20:59:02.988Z,15.40
2017-08-09T21:01:31.155Z,13.83
2017-08-09T21:03:59.211Z,15.30
2017-08-09T21:06:27.266Z,15.83
2017-08-09T21:08:55.468Z,16.07
2017-08-09T21:11:23.474Z,13.83
2017-08-09T21:13:51.497Z,15.23
2017-08-09T21:16:19.674Z,15.13
2017-08-09T21:18:47.776Z,15.17
2017-08-09T21:21:15.812Z,14.17
2017-08-09T21:23:43.947Z,14.37
2017-08-09T21:26:12.190Z,14.13
2017-08-09T21:28:40.202Z,16.10
2017-08-09T21:31:08.362Z,14.70
2017-08-09T21:33:36.425Z,15.07
2017-08-09T21:36:04.472Z,15.47
2017-08-09T21:38:32.676Z,15.00
2017-08-09T21:41:00.782Z,14.90
2017-08-09T21:43:28.849Z,14.43
2017-08-09T21:45:57.021Z,13.57
2017-08-09T21:48:25.062Z,13.43
2017-08-09T21:50:53.112Z,14.87
2017-08-09T21:53:21.333Z,12.83
2017-08-09T21:55:49.380Z,12.50
2017-08-09T21:58:17.432Z,14.20
2017-08-09T22:00:45.754Z,13.40
2017-08-09T22:03:13.810Z,12.80
2017-08-09T22:05:41.893Z,12.93
2017-08-09T22:08:10.044Z,13.47
2017-08-09T22:10:38.160Z,14.00
2017-08-09T22:13:06.212Z,12.43
2017-08-09T22:15:34.464Z,11.80
2017-08-09T22:18:02.542Z,12.27
2017-08-09T22:20:30.580Z,12.03
2017-08-09T22:22:58.766Z,14.20
2017-08-09T22:25:26.849Z,13.83
2017-08-09T22:27:55.071Z,13.50
2017-08-09T22:43:28.356Z,14.67
2017-08-09T22:45:56.386Z,14.70
2017-08-09T22:48:24.444Z,14.73
2017-08-09T22:50:52.724Z,15.73
2017-08-09T22:53:20.759Z,17.40
2017-08-09T22:55:48.845Z,15.43
2017-08-09T22:58:16.986Z,16.87
2017-08-09T23:00:44.989Z,17.17
2017-08-09T23:03:13.057Z,16.07
2017-08-09T23:05:41.209Z,15.50
2017-08-09T23:08:09.304Z,15.43
2017-08-09T23:10:37.316Z,14.10
2017-08-09T23:13:05.488Z,13.43
2017-08-09T23:15:33.509Z,13.80
2017-08-09T23:18:01.584Z,13.40
2017-08-09T23:20:29.777Z,13.70
2017-08-09T23:22:57.849Z,12.60
2017-08-09T23:25:25.984Z,13.90
2017-08-09T23:27:54.125Z,13.57
2017-08-09T23:30:22.189Z,13.43
2017-08-09T23:32:50.236Z,13.17
2017-08-09T23:35:18.422Z,11.77
2017-08-09T23:37:46.483Z,14.70
2017-08-09T23:40:14.569Z,12.90
2017-08-09T23:42:42.732Z,13.47
2017-08-09T23:45:10.779Z,13.83
2017-08-09T23:47:38.848Z,12.90
2017-08-09T23:50:07.059Z,14.30
2017-08-09T23:52:35.102Z,12.80
2017-08-09T23:55:03.180Z,13.83
2017-08-09T23:57:31.397Z,12.53
2017-08-09T23:59:59.445Z,13.43
